createdAt,value
2018-04-26T00:00:33.983Z,51.64
2018-04-26T00:01:40.704Z,51.71
2018-04-26T00:02:47.447Z,51.68
2018-04-26T00:03:54.123Z,51.67
2018-04-26T00:05:01.294Z,51.74
2018-04-26T00:06:08.028Z,51.73
2018-04-26T00:07:14.755Z,51.75
2018-04-26T00:08:21.754Z,51.76
2018-04-26T00:09:28.458Z,51.76
2018-04-26T00:10:35.180Z,51.88
2018-04-26T00:11:41.891Z,51.90
2018-04-26T00:12:48.704Z,51.91
2018-04-26T00:13:55.390Z,51.96
2018-04-26T00:15:02.149Z,51.99
2018-04-26T00:16:08.892Z,51.99
2018-04-26T00:17:15.763Z,51.98
2018-04-26T00:18:22.471Z,52.01
2018-04-26T00:19:29.187Z,52.09
2018-04-26T00:20:35.883Z,52.12
2018-04-26T00:21:42.582Z,52.15
2018-04-26T00:22:49.287Z,52.08
2018-04-26T00:23:56.063Z,52.17
2018-04-26T00:25:02.756Z,52.19
2018-04-26T00:26:09.466Z,52.24
2018-04-26T00:27:16.194Z,52.34
2018-04-26T00:28:22.895Z,52.35
2018-04-26T00:29:29.583Z,52.39
2018-04-26T00:30:36.348Z,52.37
2018-04-26T00:31:43.032Z,52.45
2018-04-26T00:32:49.795Z,52.44
2018-04-26T00:33:56.499Z,52.47
2018-04-26T00:35:03.215Z,52.52
2018-04-26T00:36:09.907Z,52.53
2018-04-26T00:37:16.743Z,52.52
2018-04-26T00:38:23.463Z,52.54
2018-04-26T00:39:30.160Z,52.56
2018-04-26T00:40:36.870Z,52.61
2018-04-26T00:41:43.571Z,52.60
2018-04-26T00:42:50.286Z,52.62
2018-04-26T00:43:57.134Z,52.65
2018-04-26T00:45:03.822Z,52.65
2018-04-26T00:46:10.571Z,52.67
2018-04-26T00:47:17.270Z,52.68
2018-04-26T00:48:24.030Z,52.70
2018-04-26T00:49:30.706Z,52.78
2018-04-26T00:50:37.821Z,52.82
2018-04-26T00:51:44.510Z,52.84
2018-04-26T00:52:51.398Z,52.88
2018-04-26T00:53:58.095Z,52.95
2018-04-26T00:55:04.881Z,53.00
2018-04-26T00:56:11.819Z,53.03
2018-04-26T00:57:18.519Z,53.07
2018-04-26T00:58:25.298Z,53.03
2018-04-26T00:59:32.063Z,53.07
2018-04-26T01:00:38.793Z,53.11
2018-04-26T01:01:45.539Z,53.15
2018-04-26T01:02:52.359Z,53.23
2018-04-26T01:03:59.127Z,53.22
2018-04-26T01:05:05.898Z,53.20
2018-04-26T01:06:12.622Z,53.23
2018-04-26T01:07:19.438Z,53.24
2018-04-26T01:08:26.146Z,53.29
2018-04-26T01:09:32.891Z,53.42
2018-04-26T01:10:39.614Z,53.43
2018-04-26T01:11:46.340Z,53.48
2018-04-26T01:12:53.169Z,53.45
2018-04-26T01:13:59.883Z,53.52
2018-04-26T01:15:06.656Z,53.48
2018-04-26T01:16:13.405Z,53.47
2018-04-26T01:17:20.107Z,53.56
2018-04-26T01:18:27.003Z,53.60
2018-04-26T01:19:33.747Z,53.55
2018-04-26T01:20:40.497Z,53.58
2018-04-26T01:21:47.211Z,53.62
2018-04-26T01:22:54.007Z,53.60
2018-04-26T01:24:00.727Z,53.73
2018-04-26T01:25:07.498Z,53.77
2018-04-26T01:26:14.240Z,53.77
2018-04-26T01:27:21.083Z,53.81
2018-04-26T01:28:28.131Z,53.87
2018-04-26T01:29:34.896Z,53.89
2018-04-26T01:30:41.740Z,53.97
2018-04-26T01:31:48.481Z,53.90
2018-04-26T01:32:55.334Z,53.89
2018-04-26T01:34:02.099Z,53.92
2018-04-26T01:35:08.848Z,53.93
2018-04-26T01:36:15.560Z,54.10
2018-04-26T01:37:22.450Z,54.10
2018-04-26T01:38:29.507Z,54.18
2018-04-26T01:39:36.254Z,54.21
2018-04-26T01:40:43.014Z,54.28
2018-04-26T01:41:49.775Z,54.28
2018-04-26T01:42:56.487Z,54.31
2018-04-26T01:44:03.199Z,54.42
2018-04-26T01:45:10.019Z,54.42
2018-04-26T01:46:16.725Z,54.46
2018-04-26T01:47:23.467Z,54.49
2018-04-26T01:48:30.195Z,54.52
2018-04-26T01:49:36.942Z,54.53
2018-04-26T01:50:43.797Z,54.57
2018-04-26T01:51:50.531Z,54.64
2018-04-26T01:52:57.283Z,54.70
2018-04-26T01:54:04.004Z,54.77
2018-04-26T01:55:10.835Z,54.84
2018-04-26T01:56:17.588Z,54.90
2018-04-26T01:57:24.303Z,55.00
2018-04-26T01:58:31.075Z,54.91
2018-04-26T01:59:38.251Z,54.96
2018-04-26T02:00:45.081Z,55.00
2018-04-26T02:01:51.869Z,55.06
2018-04-26T02:02:58.606Z,55.13
2018-04-26T02:04:05.287Z,55.16
2018-04-26T02:05:11.971Z,55.16
2018-04-26T02:06:18.671Z,55.26
2018-04-26T02:07:25.426Z,55.19
2018-04-26T02:08:32.116Z,55.31
2018-04-26T02:09:38.856Z,55.32
2018-04-26T02:10:45.600Z,55.36
2018-04-26T02:11:52.295Z,55.42
2018-04-26T02:12:58.979Z,55.38
2018-04-26T02:14:05.804Z,55.47
2018-04-26T02:15:12.500Z,55.47
2018-04-26T02:16:19.223Z,55.50
2018-04-26T02:17:25.915Z,55.63
2018-04-26T02:18:32.669Z,55.63
2018-04-26T02:19:39.376Z,55.61
2018-04-26T02:20:46.152Z,55.69
2018-04-26T02:21:52.853Z,55.76
2018-04-26T02:22:59.604Z,55.75
2018-04-26T02:24:06.368Z,55.85
2018-04-26T02:25:13.064Z,55.89
2018-04-26T02:26:19.864Z,55.96
2018-04-26T02:27:26.585Z,55.99
2018-04-26T02:28:33.299Z,56.03
2018-04-26T02:29:40.035Z,56.09
2018-04-26T02:30:46.754Z,56.18
2018-04-26T02:31:53.481Z,56.21
2018-04-26T02:33:00.214Z,56.23
2018-04-26T02:34:06.942Z,56.29
2018-04-26T02:35:13.659Z,56.31
2018-04-26T02:36:20.352Z,56.46
2018-04-26T02:37:27.071Z,56.52
2018-04-26T02:38:33.739Z,56.57
2018-04-26T02:39:40.511Z,56.62
2018-04-26T02:40:47.199Z,56.64
2018-04-26T02:41:53.931Z,56.69
2018-04-26T02:43:00.675Z,56.82
2018-04-26T02:44:07.445Z,56.81
2018-04-26T02:45:14.251Z,56.90
2018-04-26T02:46:21.018Z,56.96
2018-04-26T02:47:28.003Z,57.00
2018-04-26T02:48:34.676Z,57.05
2018-04-26T02:49:41.844Z,57.16
2018-04-26T02:50:48.533Z,57.11
2018-04-26T02:51:55.278Z,57.10
2018-04-26T02:53:02.026Z,57.22
2018-04-26T02:54:08.863Z,57.26
2018-04-26T02:55:15.600Z,57.40
2018-04-26T02:56:22.359Z,57.37
2018-04-26T02:57:29.103Z,57.45
2018-04-26T02:58:35.823Z,57.52
2018-04-26T02:59:42.588Z,57.49
2018-04-26T03:00:49.294Z,57.62
2018-04-26T03:01:56.041Z,57.63
2018-04-26T03:03:02.776Z,57.68
2018-04-26T03:04:09.510Z,57.69
2018-04-26T03:05:16.298Z,57.71
2018-04-26T03:06:23.020Z,57.76
2018-04-26T03:07:29.763Z,57.80
2018-04-26T03:08:36.523Z,57.86
2018-04-26T03:09:43.367Z,57.91
2018-04-26T03:10:50.072Z,57.88
2018-04-26T03:11:56.791Z,57.97
2018-04-26T03:13:03.566Z,57.97
2018-04-26T03:14:10.266Z,58.02
2018-04-26T03:15:17.058Z,57.98
2018-04-26T03:16:23.772Z,58.11
2018-04-26T03:17:30.486Z,58.09
2018-04-26T03:18:37.257Z,58.16
2018-04-26T03:19:43.986Z,58.11
2018-04-26T03:20:50.785Z,58.15
2018-04-26T03:21:57.516Z,58.25
2018-04-26T03:23:04.224Z,58.24
2018-04-26T03:24:10.974Z,58.30
2018-04-26T03:25:17.707Z,58.41
2018-04-26T03:26:24.498Z,58.44
2018-04-26T03:27:31.208Z,58.59
2018-04-26T03:28:37.936Z,58.70
2018-04-26T03:29:44.667Z,58.78
2018-04-26T03:30:51.363Z,58.87
2018-04-26T03:31:58.102Z,58.96
2018-04-26T03:33:04.877Z,59.07
2018-04-26T03:34:11.636Z,59.21
2018-04-26T03:35:18.385Z,59.35
2018-04-26T03:36:25.107Z,59.52
2018-04-26T03:37:31.819Z,59.66
2018-04-26T03:38:38.594Z,59.79
2018-04-26T03:39:45.318Z,59.95
2018-04-26T03:40:52.051Z,60.09
2018-04-26T03:41:58.760Z,60.17
2018-04-26T03:43:05.470Z,60.25
2018-04-26T03:44:12.293Z,60.39
2018-04-26T03:45:18.985Z,60.49
2018-04-26T03:46:25.715Z,60.61
2018-04-26T03:47:32.423Z,60.73
2018-04-26T03:48:39.157Z,60.79
2018-04-26T03:49:45.866Z,60.89
2018-04-26T03:50:52.634Z,61.06
2018-04-26T03:51:59.339Z,61.20
2018-04-26T03:53:06.030Z,61.42
2018-04-26T03:54:12.796Z,61.58
2018-04-26T03:55:19.540Z,61.68
2018-04-26T03:56:26.631Z,61.82
2018-04-26T03:57:33.370Z,61.98
2018-04-26T03:58:40.175Z,62.14
2018-04-26T03:59:46.949Z,62.28
2018-04-26T04:00:53.807Z,62.37
2018-04-26T04:02:00.746Z,62.54
2018-04-26T04:03:09.174Z,62.70
2018-04-26T04:04:16.108Z,62.87
2018-04-26T04:05:24.419Z,63.01
2018-04-26T04:06:31.091Z,63.12
2018-04-26T04:07:37.840Z,63.30
2018-04-26T04:08:45.007Z,63.39
2018-04-26T04:09:52.178Z,63.48
2018-04-26T04:10:58.883Z,63.59
2018-04-26T04:12:05.570Z,63.77
2018-04-26T04:13:12.272Z,63.89
2018-04-26T04:14:18.963Z,63.98
2018-04-26T04:15:25.694Z,64.13
2018-04-26T04:16:32.358Z,64.22
2018-04-26T04:17:39.151Z,64.24
2018-04-26T04:18:45.922Z,64.35
2018-04-26T04:19:52.639Z,64.47
2018-04-26T04:20:59.347Z,64.60
2018-04-26T04:22:06.015Z,64.71
2018-04-26T04:23:13.188Z,64.81
2018-04-26T04:24:19.889Z,64.89
2018-04-26T04:25:26.754Z,65.01
2018-04-26T04:26:33.451Z,65.13
2018-04-26T04:27:40.154Z,65.22
2018-04-26T04:28:46.827Z,65.30
2018-04-26T04:29:53.523Z,65.38
2018-04-26T04:31:00.192Z,65.43
2018-04-26T04:32:06.987Z,65.53
2018-04-26T04:33:13.668Z,65.66
2018-04-26T04:34:20.334Z,65.78
2018-04-26T04:35:27.527Z,65.90
2018-04-26T04:36:34.231Z,65.96
2018-04-26T04:37:40.948Z,66.07
2018-04-26T04:38:47.630Z,66.14
2018-04-26T04:39:54.312Z,66.11
2018-04-26T04:41:01.039Z,66.24
2018-04-26T04:42:07.755Z,66.36
2018-04-26T04:43:14.527Z,66.40
2018-04-26T04:44:21.222Z,66.54
2018-04-26T04:45:28.022Z,66.64
2018-04-26T04:46:34.828Z,66.69
2018-04-26T04:47:41.503Z,66.82
2018-04-26T04:48:48.695Z,66.91
2018-04-26T04:49:55.378Z,66.94
2018-04-26T04:51:02.111Z,67.01
2018-04-26T04:52:08.776Z,67.07
2018-04-26T04:53:15.463Z,67.10
2018-04-26T04:54:22.262Z,67.17
2018-04-26T04:55:28.931Z,67.28
2018-04-26T04:56:36.103Z,67.32
2018-04-26T04:57:42.810Z,67.39
2018-04-26T04:58:49.543Z,67.47
2018-04-26T04:59:56.253Z,67.47
2018-04-26T05:01:03.050Z,67.57
2018-04-26T05:02:09.715Z,67.64
2018-04-26T05:03:16.885Z,67.70
2018-04-26T05:04:23.588Z,67.76
2018-04-26T05:05:30.250Z,67.80
2018-04-26T05:06:37.011Z,67.84
2018-04-26T05:07:43.693Z,67.98
2018-04-26T05:08:50.526Z,68.06
2018-04-26T05:09:57.243Z,68.12
2018-04-26T05:11:03.934Z,68.16
2018-04-26T05:12:10.658Z,68.18
2018-04-26T05:13:17.350Z,68.33
2018-04-26T05:14:24.037Z,68.40
2018-04-26T05:15:30.723Z,68.41
2018-04-26T05:16:37.406Z,68.52
2018-04-26T05:17:44.239Z,68.57
2018-04-26T05:18:50.915Z,68.64
2018-04-26T05:19:57.594Z,68.65
2018-04-26T05:21:04.276Z,68.73
2018-04-26T05:22:11.024Z,68.78
2018-04-26T05:23:17.711Z,68.81
2018-04-26T05:24:24.420Z,68.91
2018-04-26T05:25:31.196Z,68.98
2018-04-26T05:26:37.959Z,69.10
2018-04-26T05:27:44.783Z,69.15
2018-04-26T05:28:51.493Z,69.20
2018-04-26T05:29:58.395Z,69.28
2018-04-26T05:31:05.076Z,69.36
2018-04-26T05:32:11.845Z,69.41
2018-04-26T05:33:18.551Z,69.41
2018-04-26T05:34:25.358Z,69.46
2018-04-26T05:35:32.042Z,69.55
2018-04-26T05:36:38.728Z,69.61
2018-04-26T05:37:45.448Z,69.62
2018-04-26T05:38:52.173Z,69.67
2018-04-26T05:39:58.942Z,69.77
2018-04-26T05:41:05.751Z,69.82
2018-04-26T05:42:12.515Z,69.86
2018-04-26T05:43:19.272Z,69.92
2018-04-26T05:44:26.003Z,70.00
2018-04-26T05:45:32.828Z,70.12
2018-04-26T05:46:39.511Z,70.19
2018-04-26T05:47:46.246Z,70.22
2018-04-26T05:48:53.003Z,70.25
2018-04-26T05:49:59.682Z,70.33
2018-04-26T05:51:06.367Z,70.35
2018-04-26T05:52:13.150Z,70.33
2018-04-26T05:53:19.831Z,70.41
2018-04-26T05:54:26.518Z,70.47
2018-04-26T05:55:33.217Z,70.57
2018-04-26T05:56:39.921Z,70.59
2018-04-26T05:57:46.643Z,70.58
2018-04-26T05:58:53.336Z,70.58
2018-04-26T06:00:00.146Z,70.70
2018-04-26T06:01:06.955Z,70.87
2018-04-26T06:02:13.676Z,70.82
2018-04-26T06:03:20.373Z,70.92
2018-04-26T06:04:27.106Z,71.14
2018-04-26T06:05:33.867Z,71.26
2018-04-26T06:06:40.547Z,71.33
2018-04-26T06:07:47.238Z,71.44
2018-04-26T06:08:53.994Z,71.56
2018-04-26T06:10:00.711Z,71.76
2018-04-26T06:11:07.552Z,71.74
2018-04-26T06:12:14.251Z,71.77
2018-04-26T06:13:20.951Z,71.80
2018-04-26T06:14:27.737Z,71.79
2018-04-26T06:15:34.599Z,71.85
2018-04-26T06:16:41.278Z,71.95
2018-04-26T06:17:47.995Z,72.07
2018-04-26T06:18:54.704Z,72.13
2018-04-26T06:20:01.471Z,72.11
2018-04-26T06:21:08.310Z,72.15
2018-04-26T06:22:15.070Z,72.20
2018-04-26T06:23:21.815Z,72.24
2018-04-26T06:24:28.531Z,72.33
2018-04-26T06:25:35.287Z,72.37
2018-04-26T06:26:41.984Z,72.36
2018-04-26T06:27:48.730Z,72.40
2018-04-26T06:28:55.446Z,72.33
2018-04-26T06:30:02.176Z,72.39
2018-04-26T06:31:09.064Z,72.39
2018-04-26T06:32:16.351Z,72.39
2018-04-26T06:34:29.989Z,72.30
2018-04-26T06:35:36.885Z,72.30
2018-04-26T06:36:43.642Z,72.39
2018-04-26T06:37:50.152Z,72.44
2018-04-26T06:38:56.968Z,72.43
2018-04-26T06:40:05.420Z,72.43
2018-04-26T06:41:10.596Z,72.41
2018-04-26T06:42:17.360Z,72.47
2018-04-26T06:43:24.094Z,72.54
2018-04-26T06:44:30.805Z,72.52
2018-04-26T06:45:37.594Z,72.42
2018-04-26T06:46:44.427Z,72.46
2018-04-26T06:47:51.224Z,72.45
2018-04-26T06:48:57.873Z,72.44
2018-04-26T06:50:04.616Z,72.43
2018-04-26T06:51:11.349Z,72.54
2018-04-26T06:52:18.139Z,72.47
2018-04-26T06:53:24.937Z,72.56
2018-04-26T06:54:31.628Z,72.56
2018-04-26T06:55:38.349Z,72.48
2018-04-26T06:56:45.153Z,72.45
2018-04-26T06:57:51.858Z,72.44
2018-04-26T06:58:58.550Z,72.40
2018-04-26T07:00:05.258Z,72.45
2018-04-26T07:01:11.987Z,72.42
2018-04-26T07:02:18.736Z,72.48
2018-04-26T07:03:25.442Z,72.49
2018-04-26T07:04:32.247Z,72.49
2018-04-26T07:05:39.001Z,72.54
2018-04-26T07:06:45.688Z,72.57
2018-04-26T07:07:52.414Z,72.57
2018-04-26T07:08:59.224Z,72.63
2018-04-26T07:10:05.955Z,72.65
2018-04-26T07:11:12.664Z,72.59
2018-04-26T07:12:19.359Z,72.55
2018-04-26T07:13:26.096Z,72.46
2018-04-26T07:14:32.810Z,72.49
2018-04-26T07:15:39.507Z,72.45
2018-04-26T07:16:46.323Z,72.49
2018-04-26T07:17:52.990Z,72.45
2018-04-26T07:18:59.668Z,72.38
2018-04-26T07:20:06.340Z,72.38
2018-04-26T07:21:13.082Z,72.43
2018-04-26T07:22:19.806Z,72.43
2018-04-26T07:23:26.517Z,72.41
2018-04-26T07:24:33.363Z,72.26
2018-04-26T07:25:40.103Z,72.25
2018-04-26T07:26:46.856Z,72.34
2018-04-26T07:27:53.547Z,72.33
2018-04-26T07:29:00.228Z,72.31
2018-04-26T07:30:07.126Z,72.22
2018-04-26T07:31:13.955Z,72.19
2018-04-26T07:32:20.686Z,72.15
2018-04-26T07:33:27.520Z,72.13
2018-04-26T07:34:34.427Z,72.10
2018-04-26T07:35:41.129Z,72.04
2018-04-26T07:36:48.265Z,72.05
2018-04-26T07:37:54.954Z,72.09
2018-04-26T07:39:01.726Z,72.00
2018-04-26T07:40:08.868Z,71.96
2018-04-26T07:41:15.543Z,72.01
2018-04-26T07:42:22.248Z,72.01
2018-04-26T07:43:28.955Z,71.93
2018-04-26T07:44:35.626Z,71.85
2018-04-26T07:45:42.403Z,71.92
2018-04-26T07:46:49.243Z,71.89
2018-04-26T07:47:55.942Z,71.90
2018-04-26T07:49:02.766Z,71.82
2018-04-26T07:50:09.664Z,71.76
2018-04-26T07:51:18.583Z,71.75
2018-04-26T07:52:23.339Z,71.69
2018-04-26T07:53:30.054Z,71.71
2018-04-26T07:54:37.239Z,71.75
2018-04-26T07:55:43.966Z,71.76
2018-04-26T07:56:50.764Z,71.82
2018-04-26T07:57:57.478Z,71.69
2018-04-26T07:59:04.263Z,71.57
2018-04-26T08:00:11.038Z,71.46
2018-04-26T08:01:17.726Z,71.45
2018-04-26T08:02:24.492Z,71.22
2018-04-26T08:03:31.298Z,71.08
2018-04-26T08:04:37.999Z,70.88
2018-04-26T08:05:44.731Z,70.87
2018-04-26T08:06:51.426Z,70.75
2018-04-26T08:07:58.160Z,70.69
2018-04-26T08:09:04.968Z,70.72
2018-04-26T08:10:11.723Z,70.52
2018-04-26T08:11:18.438Z,70.43
2018-04-26T08:12:25.233Z,70.37
2018-04-26T08:13:32.008Z,70.18
2018-04-26T08:14:38.771Z,69.87
2018-04-26T08:15:45.519Z,70.04
2018-04-26T08:16:52.216Z,70.12
2018-04-26T08:17:59.052Z,70.15
2018-04-26T08:19:05.751Z,69.83
2018-04-26T08:20:12.484Z,69.92
2018-04-26T08:21:19.696Z,70.04
2018-04-26T08:22:25.962Z,69.61
2018-04-26T08:23:32.687Z,69.57
2018-04-26T08:24:39.394Z,69.32
2018-04-26T08:25:46.228Z,69.17
2018-04-26T08:26:53.083Z,69.00
2018-04-26T08:27:59.831Z,68.88
2018-04-26T08:29:06.571Z,68.68
2018-04-26T08:30:13.283Z,68.57
2018-04-26T08:31:19.994Z,68.58
2018-04-26T08:32:26.757Z,68.36
2018-04-26T08:33:33.474Z,68.35
2018-04-26T08:34:40.230Z,68.18
2018-04-26T08:35:46.954Z,67.98
2018-04-26T08:36:53.703Z,67.92
2018-04-26T08:38:00.466Z,67.99
2018-04-26T08:39:07.255Z,67.79
2018-04-26T08:40:14.237Z,67.79
2018-04-26T08:41:20.939Z,67.54
2018-04-26T08:42:27.772Z,67.31
2018-04-26T08:43:34.511Z,67.23
2018-04-26T08:44:41.335Z,67.00
2018-04-26T08:45:48.055Z,66.75
2018-04-26T08:46:54.782Z,66.75
2018-04-26T08:48:01.503Z,66.56
2018-04-26T08:49:08.210Z,66.49
2018-04-26T08:50:14.995Z,66.36
2018-04-26T08:51:21.750Z,66.25
2018-04-26T08:52:28.474Z,66.15
2018-04-26T08:53:35.241Z,65.99
2018-04-26T08:54:42.064Z,65.82
2018-04-26T08:55:48.876Z,65.53
2018-04-26T08:56:55.601Z,65.44
2018-04-26T08:58:02.299Z,65.28
2018-04-26T08:59:09.134Z,65.05
2018-04-26T09:00:15.859Z,64.88
2018-04-26T09:01:22.598Z,64.87
2018-04-26T09:02:29.347Z,64.63
2018-04-26T09:03:36.424Z,64.47
2018-04-26T09:04:43.187Z,64.13
2018-04-26T09:05:49.994Z,63.90
2018-04-26T09:06:56.763Z,63.81
2018-04-26T09:08:03.506Z,63.66
2018-04-26T09:09:10.425Z,63.48
2018-04-26T09:10:17.154Z,63.39
2018-04-26T09:11:23.903Z,63.29
2018-04-26T09:12:30.594Z,63.23
2018-04-26T09:13:37.302Z,62.90
2018-04-26T09:14:44.066Z,62.73
2018-04-26T09:15:50.831Z,62.77
2018-04-26T09:16:57.626Z,62.48
2018-04-26T09:18:04.367Z,62.22
2018-04-26T09:19:11.238Z,62.13
2018-04-26T09:20:18.288Z,62.01
2018-04-26T09:21:25.077Z,61.93
2018-04-26T09:22:31.815Z,61.99
2018-04-26T09:23:38.534Z,61.86
2018-04-26T09:24:45.279Z,61.71
2018-04-26T09:25:52.015Z,61.51
2018-04-26T09:26:58.699Z,61.37
2018-04-26T09:28:05.407Z,61.36
2018-04-26T09:29:12.110Z,61.33
2018-04-26T09:30:18.859Z,61.17
2018-04-26T09:31:25.615Z,60.97
2018-04-26T09:32:32.458Z,60.76
2018-04-26T09:33:39.140Z,60.61
2018-04-26T09:34:45.903Z,60.44
2018-04-26T09:35:52.635Z,60.49
2018-04-26T09:36:59.481Z,60.33
2018-04-26T09:38:06.219Z,60.04
2018-04-26T09:39:12.934Z,60.14
2018-04-26T09:40:19.682Z,60.03
2018-04-26T09:41:26.387Z,59.95
2018-04-26T09:42:33.192Z,59.83
2018-04-26T09:43:39.905Z,59.81
2018-04-26T09:44:46.825Z,59.70
2018-04-26T09:45:53.702Z,59.81
2018-04-26T09:47:00.436Z,59.78
2018-04-26T09:48:07.185Z,59.77
2018-04-26T09:49:14.059Z,59.59
2018-04-26T09:50:20.842Z,59.50
2018-04-26T09:51:27.600Z,59.48
2018-04-26T09:52:34.298Z,59.34
2018-04-26T09:53:41.110Z,59.06
2018-04-26T09:54:47.831Z,58.97
2018-04-26T09:55:54.639Z,58.92
2018-04-26T09:57:01.338Z,58.89
2018-04-26T09:58:08.207Z,58.81
2018-04-26T09:59:15.355Z,58.64
2018-04-26T10:00:22.059Z,58.35
2018-04-26T10:01:29.191Z,58.28
2018-04-26T10:02:36.301Z,58.15
2018-04-26T10:03:43.254Z,58.21
2018-04-26T10:04:50.109Z,58.12
2018-04-26T10:05:57.039Z,58.49
2018-04-26T10:07:04.000Z,58.49
2018-04-26T10:08:10.858Z,58.78
2018-04-26T10:09:17.666Z,58.84
2018-04-26T10:10:24.422Z,58.85
2018-04-26T10:11:31.185Z,58.65
2018-04-26T10:12:37.910Z,58.42
2018-04-26T10:13:44.671Z,58.52
2018-04-26T10:14:51.427Z,58.35
2018-04-26T10:15:58.170Z,58.09
2018-04-26T10:17:04.939Z,57.88
2018-04-26T10:18:11.635Z,57.70
2018-04-26T10:19:18.462Z,57.66
2018-04-26T10:20:25.157Z,57.67
2018-04-26T10:21:33.390Z,57.64
2018-04-26T10:22:38.575Z,57.34
2018-04-26T10:23:45.294Z,57.21
2018-04-26T10:24:51.986Z,57.06
2018-04-26T10:25:58.703Z,57.24
2018-04-26T10:27:05.475Z,57.20
2018-04-26T10:28:12.146Z,56.85
2018-04-26T10:29:18.931Z,56.85
2018-04-26T10:30:25.629Z,56.79
2018-04-26T10:31:32.374Z,56.71
2018-04-26T10:32:39.141Z,56.78
2018-04-26T10:33:45.866Z,56.68
2018-04-26T10:34:52.566Z,56.57
2018-04-26T10:35:59.275Z,56.38
2018-04-26T10:37:06.265Z,56.46
2018-04-26T10:38:12.986Z,55.88
2018-04-26T10:39:19.683Z,55.75
2018-04-26T10:40:26.415Z,55.52
2018-04-26T10:41:33.139Z,55.33
2018-04-26T10:42:39.936Z,55.50
2018-04-26T10:43:46.681Z,55.04
2018-04-26T10:44:53.338Z,54.74
2018-04-26T10:46:00.046Z,54.46
2018-04-26T10:47:06.779Z,54.36
2018-04-26T10:48:13.465Z,54.16
2018-04-26T10:49:20.180Z,54.14
2018-04-26T10:50:26.979Z,54.11
2018-04-26T10:51:33.741Z,54.02
2018-04-26T10:52:40.451Z,54.16
2018-04-26T10:53:47.398Z,54.17
2018-04-26T10:54:54.185Z,54.18
2018-04-26T10:56:00.886Z,54.10
2018-04-26T10:57:07.651Z,54.08
2018-04-26T10:58:14.498Z,54.21
2018-04-26T10:59:21.244Z,54.08
2018-04-26T11:00:27.966Z,54.14
2018-04-26T11:01:34.670Z,53.98
2018-04-26T11:02:41.358Z,54.22
2018-04-26T11:03:48.030Z,54.10
2018-04-26T11:04:55.203Z,53.98
2018-04-26T11:06:01.961Z,53.83
2018-04-26T11:07:08.808Z,54.13
2018-04-26T11:08:15.764Z,54.03
2018-04-26T11:09:22.489Z,53.85
2018-04-26T11:10:29.207Z,53.88
2018-04-26T11:11:36.296Z,53.97
2018-04-26T11:12:43.012Z,53.98
2018-04-26T11:13:53.583Z,53.67
2018-04-26T11:14:56.848Z,53.44
2018-04-26T11:16:03.659Z,53.29
2018-04-26T11:17:10.435Z,53.12
2018-04-26T11:18:17.230Z,52.83
2018-04-26T11:19:23.851Z,52.85
2018-04-26T11:20:30.607Z,52.75
2018-04-26T11:21:37.608Z,52.53
2018-04-26T11:22:44.550Z,52.45
2018-04-26T11:23:51.258Z,52.22
2018-04-26T11:24:57.979Z,52.13
2018-04-26T11:26:04.772Z,51.80
2018-04-26T11:27:11.491Z,51.70
2018-04-26T11:28:18.260Z,51.33
2018-04-26T11:29:25.001Z,51.30
2018-04-26T11:30:31.699Z,51.11
2018-04-26T11:31:38.405Z,51.00
2018-04-26T11:32:45.115Z,50.82
2018-04-26T11:33:51.834Z,50.99
2018-04-26T11:34:58.607Z,50.81
2018-04-26T11:36:05.409Z,50.80
2018-04-26T11:37:12.115Z,50.68
2018-04-26T11:38:19.353Z,50.55
2018-04-26T11:39:25.694Z,50.40
2018-04-26T11:40:32.423Z,50.36
2018-04-26T11:41:39.143Z,50.41
2018-04-26T11:42:45.867Z,50.44
2018-04-26T11:43:52.602Z,50.32
2018-04-26T11:44:59.396Z,50.11
2018-04-26T11:46:06.073Z,49.81
2018-04-26T11:47:12.819Z,49.83
2018-04-26T11:48:19.494Z,49.64
2018-04-26T11:49:26.227Z,49.78
2018-04-26T11:50:32.928Z,49.71
2018-04-26T11:51:39.695Z,49.89
2018-04-26T11:52:46.940Z,49.78
2018-04-26T11:53:53.655Z,49.60
2018-04-26T11:55:00.363Z,49.70
2018-04-26T11:56:07.106Z,49.60
2018-04-26T11:57:13.915Z,49.64
2018-04-26T11:58:20.644Z,49.39
2018-04-26T11:59:27.390Z,49.39
2018-04-26T12:00:34.097Z,49.52
2018-04-26T12:01:40.915Z,49.64
2018-04-26T12:02:47.721Z,49.58
2018-04-26T12:03:54.374Z,49.77
2018-04-26T12:05:04.532Z,49.70
2018-04-26T12:06:07.762Z,49.55
2018-04-26T12:07:14.931Z,49.35
2018-04-26T12:08:21.639Z,49.32
2018-04-26T12:09:28.342Z,49.21
2018-04-26T12:10:35.142Z,48.92
2018-04-26T12:11:41.821Z,49.03
2018-04-26T12:12:48.986Z,49.11
2018-04-26T12:13:55.691Z,49.34
2018-04-26T12:15:02.435Z,49.04
2018-04-26T12:16:09.168Z,48.92
2018-04-26T12:17:15.979Z,48.75
2018-04-26T12:18:22.665Z,48.62
2018-04-26T12:19:29.400Z,48.44
2018-04-26T12:20:36.098Z,48.63
2018-04-26T12:21:42.778Z,48.44
2018-04-26T12:22:49.484Z,48.58
2018-04-26T12:23:56.249Z,48.47
2018-04-26T12:25:02.999Z,48.52
2018-04-26T12:26:09.683Z,48.96
2018-04-26T12:27:16.383Z,48.97
2018-04-26T12:28:23.104Z,49.23
2018-04-26T12:29:29.807Z,49.36
2018-04-26T12:30:36.503Z,49.33
2018-04-26T12:31:43.206Z,49.13
2018-04-26T12:32:49.931Z,48.97
2018-04-26T12:33:56.642Z,48.96
2018-04-26T12:35:03.344Z,48.94
2018-04-26T12:36:10.058Z,48.80
2018-04-26T12:37:16.739Z,48.71
2018-04-26T12:38:23.967Z,48.84
2018-04-26T12:39:30.857Z,48.87
2018-04-26T12:40:37.599Z,48.85
2018-04-26T12:41:44.307Z,48.71
2018-04-26T12:42:51.463Z,48.59
2018-04-26T12:43:58.313Z,48.57
2018-04-26T12:45:05.259Z,48.43
2018-04-26T12:46:12.047Z,48.48
2018-04-26T12:47:18.924Z,48.62
2018-04-26T12:48:25.862Z,48.67
2018-04-26T12:49:32.667Z,48.64
2018-04-26T12:50:39.584Z,48.52
2018-04-26T12:51:46.339Z,48.51
2018-04-26T12:52:53.098Z,48.40
2018-04-26T12:53:59.806Z,48.53
2018-04-26T12:55:06.624Z,48.50
2018-04-26T12:56:13.374Z,48.75
2018-04-26T12:57:20.079Z,48.75
2018-04-26T12:58:26.795Z,48.98
2018-04-26T12:59:33.742Z,48.81
2018-04-26T13:00:40.647Z,48.60
2018-04-26T13:01:47.371Z,48.77
2018-04-26T13:02:54.074Z,48.68
2018-04-26T13:04:00.854Z,49.13
2018-04-26T13:05:07.597Z,49.10
2018-04-26T13:06:14.407Z,48.52
2018-04-26T13:07:21.122Z,48.42
2018-04-26T13:08:27.842Z,48.50
2018-04-26T13:09:34.647Z,48.30
2018-04-26T13:10:41.425Z,48.19
2018-04-26T13:11:48.167Z,48.04
2018-04-26T13:12:54.898Z,47.93
2018-04-26T13:14:01.644Z,47.91
2018-04-26T13:15:08.768Z,47.87
2018-04-26T13:16:15.203Z,47.74
2018-04-26T13:17:22.047Z,47.70
2018-04-26T13:18:28.811Z,47.78
2018-04-26T13:19:35.575Z,47.76
2018-04-26T13:20:42.420Z,47.78
2018-04-26T13:21:49.238Z,47.84
2018-04-26T13:22:55.966Z,47.58
2018-04-26T13:24:02.707Z,47.59
2018-04-26T13:25:09.451Z,47.44
2018-04-26T13:26:16.247Z,47.51
2018-04-26T13:27:23.048Z,47.33
2018-04-26T13:28:29.858Z,47.24
2018-04-26T13:29:36.802Z,47.17
2018-04-26T13:30:43.530Z,47.14
2018-04-26T13:31:50.390Z,46.92
2018-04-26T13:32:57.395Z,46.92
2018-04-26T13:34:04.139Z,47.10
2018-04-26T13:35:10.891Z,47.04
2018-04-26T13:36:17.609Z,46.69
2018-04-26T13:37:24.335Z,46.73
2018-04-26T13:38:31.192Z,46.86
2018-04-26T13:39:37.918Z,46.88
2018-04-26T13:40:44.631Z,46.82
2018-04-26T13:41:51.391Z,46.86
2018-04-26T13:42:58.174Z,46.84
2018-04-26T13:44:04.890Z,46.91
2018-04-26T13:45:11.598Z,46.87
2018-04-26T13:46:18.405Z,46.80
2018-04-26T13:47:25.083Z,46.97
2018-04-26T13:48:31.839Z,46.92
2018-04-26T13:49:38.607Z,46.88
2018-04-26T13:50:45.306Z,46.81
2018-04-26T13:51:52.051Z,46.83
2018-04-26T13:52:58.875Z,46.84
2018-04-26T13:54:05.578Z,46.78
2018-04-26T13:55:12.298Z,46.62
2018-04-26T13:56:18.988Z,46.46
2018-04-26T13:57:25.740Z,46.40
2018-04-26T13:58:32.514Z,46.17
2018-04-26T13:59:39.257Z,46.33
2018-04-26T14:00:46.062Z,46.28
2018-04-26T14:01:52.774Z,46.19
2018-04-26T14:02:59.570Z,45.93
2018-04-26T14:04:06.291Z,46.03
2018-04-26T14:05:13.005Z,45.92
2018-04-26T14:06:19.743Z,46.05
2018-04-26T14:07:26.475Z,46.04
2018-04-26T14:08:33.206Z,45.95
2018-04-26T14:09:39.916Z,46.10
2018-04-26T14:10:46.614Z,46.17
2018-04-26T14:11:53.339Z,45.99
2018-04-26T14:13:00.047Z,46.00
2018-04-26T14:14:06.873Z,46.16
2018-04-26T14:15:13.595Z,46.20
2018-04-26T14:16:20.302Z,46.15
2018-04-26T14:17:27.078Z,45.87
2018-04-26T14:18:33.782Z,45.90
2018-04-26T14:19:40.555Z,46.01
2018-04-26T14:20:47.226Z,45.90